Time;durP1;ratioP1;P1;durP2;ratioP2;P2;SDS_P1;SDS_P2;PMS_P1;PMS_P2;Temp;Humidity;BMP_temperature;BMP_pressure;BME280_temperature;BME280_humidity;BME280_pressure;Samples;Min_cycle;Max_cycle;Signal;HPM_P1;HPM_P2
2023/08/15 00:01:14;;;;;;;;;;;17.30;99.90;;;;;;5124416;27;19919;-77
2023/08/15 00:03:39;;;;;;;;;;;17.30;99.90;;;;;;5123731;27;19941;-77
2023/08/15 00:06:05;;;;;;;;;;;17.20;99.90;;;;;;5119899;27;19998;-77
2023/08/15 00:08:30;;;;;;;;;;;17.20;99.90;;;;;;5120078;27;19915;-77
2023/08/15 00:10:56;;;;;;;;;;;17.20;99.90;;;;;;5122554;27;19934;-77
2023/08/15 00:13:22;;;;;;;;;;;17.10;99.90;;;;;;5125474;27;19927;-77
2023/08/15 00:15:47;;;;;;;;;;;17.10;99.90;;;;;;5124708;27;19930;-77
2023/08/15 00:18:13;;;;;;;;;;;17.10;99.90;;;;;;5120123;27;20355;-77
2023/08/15 00:20:38;;;;;;;;;;;17.10;99.90;;;;;;5123438;27;20460;-77
2023/08/15 00:23:04;;;;;;;;;;;17.00;99.90;;;;;;5126158;27;19927;-77
2023/08/15 00:25:30;;;;;;;;;;;17.00;99.90;;;;;;5098520;28;20334;-77
2023/08/15 00:27:55;;;;;;;;;;;17.00;99.90;;;;;;5126384;28;19926;-77
2023/08/15 00:30:21;;;;;;;;;;;16.90;99.90;;;;;;5120515;28;19988;-77
2023/08/15 00:32:46;;;;;;;;;;;16.90;99.90;;;;;;5119865;28;19927;-77
2023/08/15 00:35:12;;;;;;;;;;;16.90;99.90;;;;;;5123240;27;19942;-77
2023/08/15 00:37:37;;;;;;;;;;;16.90;99.90;;;;;;5127262;27;20003;-77
2023/08/15 00:40:04;;;;;;;;;;;16.90;99.90;;;;;;5129885;27;19923;-77
2023/08/15 00:42:29;;;;;;;;;;;16.90;99.90;;;;;;5129560;27;19919;-77
2023/08/15 00:44:56;;;;;;;;;;;16.90;99.90;;;;;;5122256;27;19926;-77
2023/08/15 00:47:21;;;;;;;;;;;16.90;99.90;;;;;;5128887;27;20014;-77
2023/08/15 00:49:47;;;;;;;;;;;17.00;99.90;;;;;;5127160;27;20011;-77
2023/08/15 00:52:14;;;;;;;;;;;17.00;99.90;;;;;;5123955;27;19989;-77
2023/08/15 00:54:41;;;;;;;;;;;17.10;99.90;;;;;;5127598;27;19934;-77
2023/08/15 00:57:07;;;;;;;;;;;17.10;99.90;;;;;;5128261;27;19927;-77
2023/08/15 00:59:33;;;;;;;;;;;17.20;99.90;;;;;;5128612;27;20339;-77
2023/08/15 01:01:59;;;;;;;;;;;17.20;99.90;;;;;;5124717;27;19934;-76
2023/08/15 01:04:25;;;;;;;;;;;17.20;99.90;;;;;;5125336;27;19968;-77
2023/08/15 01:06:50;;;;;;;;;;;17.20;99.90;;;;;;5124747;27;19919;-77
2023/08/15 01:09:16;;;;;;;;;;;17.20;99.90;;;;;;5125795;27;19923;-77
2023/08/15 01:12:01;;;;;;;;;;;17.20;99.90;;;;;;5129007;27;20266;-77
2023/08/15 01:14:29;;;;;;;;;;;17.20;99.90;;;;;;5120469;27;19931;-77
2023/08/15 01:16:55;;;;;;;;;;;17.20;99.90;;;;;;5120281;27;20079;-77
2023/08/15 01:19:27;;;;;;;;;;;17.20;99.90;;;;;;5125983;27;20014;-77
2023/08/15 01:21:54;;;;;;;;;;;17.20;99.90;;;;;;5120315;27;19923;-77
2023/08/15 01:24:20;;;;;;;;;;;17.20;99.90;;;;;;5122634;27;20056;-77
2023/08/15 01:26:46;;;;;;;;;;;17.20;99.90;;;;;;5127043;27;20003;-78
2023/08/15 01:29:11;;;;;;;;;;;17.10;99.90;;;;;;5125498;27;19919;-77
2023/08/15 01:31:40;;;;;;;;;;;17.10;99.90;;;;;;5124224;27;20496;-77
2023/08/15 01:34:12;;;;;;;;;;;17.10;99.90;;;;;;5128295;27;19930;-77
2023/08/15 01:36:43;;;;;;;;;;;17.10;99.90;;;;;;5126037;27;19928;-77
2023/08/15 01:39:10;;;;;;;;;;;17.00;99.90;;;;;;5124867;27;20358;-76
2023/08/15 01:41:37;;;;;;;;;;;17.00;99.90;;;;;;5117968;27;19927;-76
2023/08/15 01:44:03;;;;;;;;;;;17.00;99.90;;;;;;5129364;27;19927;-77
2023/08/15 01:46:29;;;;;;;;;;;16.90;99.90;;;;;;5126130;27;20294;-77
2023/08/15 01:48:57;;;;;;;;;;;16.90;99.90;;;;;;5127825;27;19971;-77
2023/08/15 01:51:23;;;;;;;;;;;16.80;99.90;;;;;;5120418;27;19923;-77
2023/08/15 01:53:48;;;;;;;;;;;16.80;99.90;;;;;;5119642;27;19943;-77
2023/08/15 01:56:14;;;;;;;;;;;16.80;99.90;;;;;;5128550;27;19964;-77
2023/08/15 01:58:39;;;;;;;;;;;16.70;99.90;;;;;;5127771;27;19970;-77
2023/08/15 02:01:05;;;;;;;;;;;16.70;99.90;;;;;;5121685;27;19931;-77
2023/08/15 02:03:30;;;;;;;;;;;16.70;99.90;;;;;;5128005;27;19963;-77
2023/08/15 02:05:56;;;;;;;;;;;16.60;99.90;;;;;;5123688;27;20530;-77
2023/08/15 02:08:22;;;;;;;;;;;16.60;99.90;;;;;;5125480;27;19927;-76
2023/08/15 02:10:49;;;;;;;;;;;16.60;99.90;;;;;;5127380;27;19980;-76
2023/08/15 02:13:14;;;;;;;;;;;16.60;99.90;;;;;;5123181;27;19920;-77
2023/08/15 02:15:40;;;;;;;;;;;16.60;99.90;;;;;;5123942;27;19919;-77
2023/08/15 02:18:06;;;;;;;;;;;16.50;99.90;;;;;;5126999;27;19923;-77
2023/08/15 02:20:31;;;;;;;;;;;16.50;99.90;;;;;;5125962;27;19923;-77
2023/08/15 02:22:57;;;;;;;;;;;16.50;99.90;;;;;;5127063;27;19923;-77
2023/08/15 02:25:23;;;;;;;;;;;16.50;99.90;;;;;;5126239;27;20289;-77
2023/08/15 02:27:49;;;;;;;;;;;16.60;99.90;;;;;;5124834;27;19923;-77
2023/08/15 02:30:14;;;;;;;;;;;16.60;99.90;;;;;;5128108;27;20293;-77
2023/08/15 02:32:40;;;;;;;;;;;16.60;99.90;;;;;;5122251;27;19958;-77
2023/08/15 02:35:06;;;;;;;;;;;16.60;99.90;;;;;;5125994;27;19923;-77
2023/08/15 02:37:31;;;;;;;;;;;16.60;99.90;;;;;;5123680;27;20465;-77
2023/08/15 02:39:57;;;;;;;;;;;16.60;99.90;;;;;;5123285;27;19938;-77
2023/08/15 02:42:22;;;;;;;;;;;16.60;99.90;;;;;;5119760;27;19919;-77
2023/08/15 02:44:48;;;;;;;;;;;16.60;99.90;;;;;;5122500;27;19919;-77
2023/08/15 02:47:13;;;;;;;;;;;16.70;99.90;;;;;;5122462;27;20402;-78
2023/08/15 02:49:39;;;;;;;;;;;16.70;99.90;;;;;;5120032;27;19923;-77
2023/08/15 02:52:05;;;;;;;;;;;16.60;99.90;;;;;;5127804;27;19924;-77
2023/08/15 02:54:30;;;;;;;;;;;16.60;99.90;;;;;;5125979;27;19929;-77
2023/08/15 02:56:56;;;;;;;;;;;16.60;99.90;;;;;;5122891;27;19966;-77
2023/08/15 02:59:22;;;;;;;;;;;16.60;99.90;;;;;;5120745;27;19980;-77
2023/08/15 03:01:47;;;;;;;;;;;16.60;99.90;;;;;;5124414;27;19948;-77
2023/08/15 03:04:13;;;;;;;;;;;16.60;99.90;;;;;;5122770;27;19980;-77
2023/08/15 03:06:38;;;;;;;;;;;16.60;99.90;;;;;;5123997;27;19985;-77
2023/08/15 03:09:05;;;;;;;;;;;16.60;99.90;;;;;;5119358;27;19928;-76
2023/08/15 03:11:30;;;;;;;;;;;16.60;99.90;;;;;;5121545;27;20377;-76
2023/08/15 03:13:58;;;;;;;;;;;16.60;99.90;;;;;;5129144;27;19930;-76
2023/08/15 03:16:23;;;;;;;;;;;16.50;99.90;;;;;;5117435;27;19923;-76
2023/08/15 03:18:49;;;;;;;;;;;16.70;99.90;;;;;;5123234;27;19938;-76
2023/08/15 03:21:14;;;;;;;;;;;16.70;99.90;;;;;;5125330;27;19928;-76
2023/08/15 03:23:41;;;;;;;;;;;16.90;99.90;;;;;;5125585;27;19944;-76
2023/08/15 03:26:07;;;;;;;;;;;17.00;99.90;;;;;;5122819;27;19973;-76
2023/08/15 03:28:33;;;;;;;;;;;17.00;99.90;;;;;;5116187;27;19931;-77
2023/08/15 03:31:08;;;;;;;;;;;17.10;99.90;;;;;;5121358;27;19927;-77
2023/08/15 03:33:34;;;;;;;;;;;17.30;99.90;;;;;;5121594;27;19966;-77
2023/08/15 03:36:00;;;;;;;;;;;17.30;99.90;;;;;;5120799;27;19923;-76
2023/08/15 03:38:25;;;;;;;;;;;17.50;99.90;;;;;;5117610;27;20353;-76
2023/08/15 03:41:01;;;;;;;;;;;17.70;99.90;;;;;;5122095;27;19962;-76
2023/08/15 03:43:26;;;;;;;;;;;17.80;99.90;;;;;;5120744;27;20010;-76
2023/08/15 03:45:52;;;;;;;;;;;17.90;99.90;;;;;;5121106;27;20202;-77
2023/08/15 03:48:17;;;;;;;;;;;18.00;99.90;;;;;;5121880;27;20043;-77
2023/08/15 03:50:43;;;;;;;;;;;18.00;99.90;;;;;;5124245;27;19923;-77
2023/08/15 03:53:08;;;;;;;;;;;18.00;99.90;;;;;;5127433;27;19926;-77
2023/08/15 03:55:34;;;;;;;;;;;18.00;99.90;;;;;;5122084;27;19982;-77
2023/08/15 03:57:59;;;;;;;;;;;18.00;99.90;;;;;;5119466;27;19971;-77
2023/08/15 04:00:25;;;;;;;;;;;17.90;99.90;;;;;;5123726;27;19955;-77
2023/08/15 04:02:51;;;;;;;;;;;17.90;99.90;;;;;;5121675;27;19923;-77
2023/08/15 04:05:17;;;;;;;;;;;17.90;99.90;;;;;;5119851;27;19979;-77
2023/08/15 04:07:43;;;;;;;;;;;17.80;99.90;;;;;;5124082;27;20535;-77
2023/08/15 04:10:11;;;;;;;;;;;17.80;99.90;;;;;;5125562;27;20010;-77
2023/08/15 04:12:37;;;;;;;;;;;17.80;99.90;;;;;;5119536;27;19939;-77
2023/08/15 04:15:03;;;;;;;;;;;17.70;99.90;;;;;;5121783;27;19972;-77
2023/08/15 04:17:29;;;;;;;;;;;17.60;99.90;;;;;;5124331;27;19952;-77
2023/08/15 04:19:54;;;;;;;;;;;17.60;99.90;;;;;;5121354;27;19927;-77
2023/08/15 04:22:20;;;;;;;;;;;17.50;99.90;;;;;;5119797;27;20369;-77
2023/08/15 04:24:45;;;;;;;;;;;17.60;99.90;;;;;;5122269;27;20362;-77
2023/08/15 04:27:11;;;;;;;;;;;17.60;99.90;;;;;;5124209;28;19926;-77
2023/08/15 04:29:36;;;;;;;;;;;17.70;99.90;;;;;;5117851;28;19924;-77
2023/08/15 04:32:02;;;;;;;;;;;17.70;99.90;;;;;;5123611;28;19967;-77
2023/08/15 04:34:28;;;;;;;;;;;17.70;99.90;;;;;;5119393;28;19927;-77
2023/08/15 04:36:54;;;;;;;;;;;17.80;99.90;;;;;;5118323;28;20270;-78
2023/08/15 04:39:21;;;;;;;;;;;17.70;99.90;;;;;;5119540;28;19931;-77
2023/08/15 04:41:47;;;;;;;;;;;17.60;99.90;;;;;;5125474;28;20526;-77
2023/08/15 04:44:12;;;;;;;;;;;17.60;99.90;;;;;;5120157;28;19923;-77
2023/08/15 04:46:38;;;;;;;;;;;17.60;99.90;;;;;;5121372;28;20245;-77
2023/08/15 04:49:03;;;;;;;;;;;17.70;99.90;;;;;;5125949;28;19923;-77
2023/08/15 04:51:29;;;;;;;;;;;17.70;99.90;;;;;;5118631;28;19992;-77
2023/08/15 04:53:55;;;;;;;;;;;17.70;99.90;;;;;;5120707;27;19919;-78
2023/08/15 04:56:23;;;;;;;;;;;17.70;99.90;;;;;;5122036;28;19959;-78
2023/08/15 04:58:49;;;;;;;;;;;17.80;99.90;;;;;;5125901;28;19919;-77
2023/08/15 05:01:14;;;;;;;;;;;17.90;99.90;;;;;;5118795;28;20289;-78
2023/08/15 05:03:40;;;;;;;;;;;17.90;99.90;;;;;;5122194;27;20018;-78
2023/08/15 05:06:06;;;;;;;;;;;17.90;99.90;;;;;;5116773;28;19944;-78
2023/08/15 05:08:31;;;;;;;;;;;18.00;99.90;;;;;;5123074;28;19924;-78
2023/08/15 05:10:57;;;;;;;;;;;18.00;99.90;;;;;;5119803;28;19933;-77
2023/08/15 05:13:23;;;;;;;;;;;18.00;99.90;;;;;;5122553;28;19967;-78
2023/08/15 05:15:49;;;;;;;;;;;18.00;99.90;;;;;;5119901;28;20397;-78
2023/08/15 05:18:15;;;;;;;;;;;18.00;99.90;;;;;;5119132;28;19924;-78
2023/08/15 05:20:41;;;;;;;;;;;18.00;99.90;;;;;;5121544;28;19920;-78
2023/08/15 05:23:07;;;;;;;;;;;18.10;99.90;;;;;;5123762;27;19927;-77
2023/08/15 05:25:32;;;;;;;;;;;18.10;99.90;;;;;;5121956;27;19924;-78
2023/08/15 05:28:02;;;;;;;;;;;18.10;99.90;;;;;;5119551;27;19923;-77
2023/08/15 05:30:27;;;;;;;;;;;18.20;99.90;;;;;;5126496;27;19927;-77
2023/08/15 05:32:53;;;;;;;;;;;18.20;99.90;;;;;;5116535;27;19927;-77
2023/08/15 05:35:19;;;;;;;;;;;18.20;99.90;;;;;;5121721;27;20342;-77
2023/08/15 05:37:44;;;;;;;;;;;18.30;99.90;;;;;;5119992;27;20457;-78
2023/08/15 05:40:10;;;;;;;;;;;18.30;99.90;;;;;;5117569;27;19923;-79
2023/08/15 05:42:36;;;;;;;;;;;18.30;99.90;;;;;;5124502;27;19927;-77
2023/08/15 05:45:01;;;;;;;;;;;18.30;99.90;;;;;;5124859;27;20397;-78
2023/08/15 05:47:27;;;;;;;;;;;18.30;99.90;;;;;;5123972;27;19931;-77
2023/08/15 05:49:52;;;;;;;;;;;18.40;99.90;;;;;;5119095;27;19923;-77
2023/08/15 05:52:18;;;;;;;;;;;18.40;99.90;;;;;;5121403;27;19962;-77
2023/08/15 05:54:43;;;;;;;;;;;18.40;99.90;;;;;;5119631;27;19997;-77
2023/08/15 05:57:09;;;;;;;;;;;18.40;99.90;;;;;;5121655;27;19923;-76
2023/08/15 05:59:34;;;;;;;;;;;18.40;99.90;;;;;;5125581;27;19934;-77
2023/08/15 06:02:00;;;;;;;;;;;18.40;99.90;;;;;;5123731;27;19926;-77
2023/08/15 06:04:26;;;;;;;;;;;18.40;99.90;;;;;;5124627;27;20413;-77
2023/08/15 06:06:51;;;;;;;;;;;18.40;99.90;;;;;;5118016;27;20018;-77
2023/08/15 06:09:17;;;;;;;;;;;18.30;99.90;;;;;;5122070;27;19930;-77
2023/08/15 06:11:42;;;;;;;;;;;18.30;99.90;;;;;;5128158;27;19919;-77
2023/08/15 06:14:08;;;;;;;;;;;18.30;99.90;;;;;;5125248;27;19963;-78
2023/08/15 06:16:34;;;;;;;;;;;18.20;99.90;;;;;;5121672;27;19923;-77
2023/08/15 06:19:00;;;;;;;;;;;18.20;99.90;;;;;;5110957;27;19923;-77
2023/08/15 06:21:26;;;;;;;;;;;18.20;99.90;;;;;;5125226;27;19924;-77
2023/08/15 06:23:51;;;;;;;;;;;18.20;99.90;;;;;;5123649;27;19927;-77
2023/08/15 06:26:17;;;;;;;;;;;18.20;99.90;;;;;;5128583;27;19934;-77
2023/08/15 06:28:42;;;;;;;;;;;18.20;99.90;;;;;;5124040;27;19920;-77
2023/08/15 06:31:08;;;;;;;;;;;18.40;99.90;;;;;;5126583;27;20408;-78
2023/08/15 06:33:34;;;;;;;;;;;18.40;99.90;;;;;;5126486;27;19927;-78
2023/08/15 06:35:59;;;;;;;;;;;18.50;99.90;;;;;;5128061;27;19976;-78
2023/08/15 06:38:25;;;;;;;;;;;18.60;99.90;;;;;;5127395;27;20366;-78
2023/08/15 06:40:50;;;;;;;;;;;18.70;99.90;;;;;;5127641;27;19919;-78
2023/08/15 06:43:16;;;;;;;;;;;18.70;99.90;;;;;;5128564;27;20369;-77
2023/08/15 06:45:42;;;;;;;;;;;18.70;99.90;;;;;;5129365;27;19968;-77
2023/08/15 06:48:07;;;;;;;;;;;18.70;99.90;;;;;;5125584;27;19931;-78
2023/08/15 06:50:33;;;;;;;;;;;18.70;99.90;;;;;;5128577;27;19923;-78
2023/08/15 06:52:59;;;;;;;;;;;18.70;99.90;;;;;;5126291;27;19927;-77
2023/08/15 06:55:25;;;;;;;;;;;18.70;99.90;;;;;;5128258;27;20067;-77
2023/08/15 06:57:50;;;;;;;;;;;18.70;99.90;;;;;;5128942;27;19923;-77
2023/08/15 07:00:16;;;;;;;;;;;18.70;99.90;;;;;;5127191;27;19919;-77
2023/08/15 07:02:42;;;;;;;;;;;18.70;99.90;;;;;;5101201;27;19948;-77
2023/08/15 07:05:10;;;;;;;;;;;18.80;99.90;;;;;;5122407;27;19923;-77
2023/08/15 07:07:37;;;;;;;;;;;19.00;99.90;;;;;;5120906;27;20430;-77
2023/08/15 07:10:05;;;;;;;;;;;19.20;99.90;;;;;;5122035;27;20392;-77
2023/08/15 07:12:30;;;;;;;;;;;19.40;99.90;;;;;;5120835;27;19928;-77
2023/08/15 07:14:56;;;;;;;;;;;19.50;99.90;;;;;;5114860;27;19980;-77
2023/08/15 07:17:21;;;;;;;;;;;19.70;99.90;;;;;;5123391;27;19920;-77
2023/08/15 07:19:47;;;;;;;;;;;19.70;99.90;;;;;;5117352;27;20616;-77
2023/08/15 07:22:13;;;;;;;;;;;19.80;99.90;;;;;;5123890;27;19923;-77
2023/08/15 07:24:38;;;;;;;;;;;19.90;99.90;;;;;;5121847;27;19923;-77
2023/08/15 07:27:04;;;;;;;;;;;20.00;99.90;;;;;;5127086;27;19923;-78
2023/08/15 07:29:29;;;;;;;;;;;20.10;99.90;;;;;;5124424;27;20377;-78
2023/08/15 07:31:55;;;;;;;;;;;20.20;99.90;;;;;;5117946;27;19923;-78
2023/08/15 07:34:21;;;;;;;;;;;20.30;99.90;;;;;;5118859;27;19923;-78
2023/08/15 07:36:47;;;;;;;;;;;20.40;99.90;;;;;;5123044;27;19934;-77
2023/08/15 07:39:13;;;;;;;;;;;20.40;99.90;;;;;;5121285;27;19968;-78
2023/08/15 07:41:39;;;;;;;;;;;20.30;99.90;;;;;;5121499;27;19928;-77
2023/08/15 07:44:04;;;;;;;;;;;20.40;99.90;;;;;;5117367;27;19962;-78
2023/08/15 07:46:30;;;;;;;;;;;20.50;99.90;;;;;;5115008;27;19928;-77
2023/08/15 07:48:56;;;;;;;;;;;20.60;99.90;;;;;;5117492;27;20259;-78
2023/08/15 07:51:22;;;;;;;;;;;20.60;99.90;;;;;;5114192;27;19930;-76
2023/08/15 07:53:47;;;;;;;;;;;20.70;99.90;;;;;;5125059;27;19934;-76
2023/08/15 07:56:13;;;;;;;;;;;20.80;99.90;;;;;;5124963;27;19924;-76
2023/08/15 07:58:38;;;;;;;;;;;20.90;99.90;;;;;;5125056;27;19930;-75
2023/08/15 08:01:04;;;;;;;;;;;21.00;99.90;;;;;;5126832;27;20562;-75
2023/08/15 08:03:29;;;;;;;;;;;21.00;99.90;;;;;;5122167;27;20035;-75
2023/08/15 08:05:55;;;;;;;;;;;20.90;99.90;;;;;;5123805;27;19923;-75
2023/08/15 08:08:21;;;;;;;;;;;20.90;99.90;;;;;;5126901;27;19968;-76
2023/08/15 08:10:46;;;;;;;;;;;20.90;99.90;;;;;;5122788;27;19930;-76
2023/08/15 08:13:16;;;;;;;;;;;20.80;99.90;;;;;;5125087;27;19927;-76
2023/08/15 08:15:42;;;;;;;;;;;20.90;99.90;;;;;;5126678;27;19926;-76
2023/08/15 08:18:08;;;;;;;;;;;21.00;99.90;;;;;;5122836;27;19927;-76
2023/08/15 08:20:34;;;;;;;;;;;;;;;;;;5127576;27;20377;-76
2023/08/15 08:23:00;;;;;;;;;;;21.20;99.90;;;;;;5123591;27;19923;-77
2023/08/15 08:25:26;;;;;;;;;;;21.40;99.90;;;;;;5126863;27;20357;-76
2023/08/15 08:27:51;;;;;;;;;;;21.60;99.90;;;;;;5127049;27;19956;-76
2023/08/15 08:30:18;;;;;;;;;;;21.90;99.90;;;;;;5124901;27;20335;-76
2023/08/15 08:32:43;;;;;;;;;;;22.30;99.90;;;;;;5129407;27;19924;-76
2023/08/15 08:35:10;;;;;;;;;;;22.50;99.90;;;;;;5122721;27;19930;-75
2023/08/15 08:37:36;;;;;;;;;;;22.50;99.90;;;;;;5127256;27;19923;-76
2023/08/15 08:40:03;;;;;;;;;;;22.50;99.90;;;;;;5126606;27;19980;-76
2023/08/15 08:42:29;;;;;;;;;;;22.40;99.90;;;;;;5126542;27;19927;-76
2023/08/15 08:44:55;;;;;;;;;;;22.20;99.90;;;;;;5124540;27;20000;-76
2023/08/15 08:47:21;;;;;;;;;;;22.10;99.90;;;;;;5126242;27;19930;-76
2023/08/15 08:49:47;;;;;;;;;;;22.10;99.90;;;;;;5125438;27;19923;-76
2023/08/15 08:52:13;;;;;;;;;;;22.20;99.90;;;;;;5125667;27;19972;-76
2023/08/15 08:54:39;;;;;;;;;;;22.00;99.90;;;;;;5126805;27;20010;-76
2023/08/15 08:57:07;;;;;;;;;;;22.00;99.90;;;;;;5124933;27;20010;-77
2023/08/15 08:59:33;;;;;;;;;;;22.00;99.90;;;;;;5129901;27;20642;-76
2023/08/15 09:01:58;;;;;;;;;;;22.20;99.90;;;;;;5124052;27;19926;-76
2023/08/15 09:04:24;;;;;;;;;;;22.30;99.90;;;;;;5126925;27;19948;-75
2023/08/15 09:06:50;;;;;;;;;;;22.40;99.90;;;;;;5127641;27;19938;-76
2023/08/15 09:09:15;;;;;;;;;;;22.40;99.90;;;;;;5129297;27;20024;-75
2023/08/15 09:11:41;;;;;;;;;;;22.50;99.90;;;;;;5128671;27;20357;-76
2023/08/15 09:14:07;;;;;;;;;;;22.70;99.90;;;;;;5128090;27;19984;-77
2023/08/15 09:16:32;;;;;;;;;;;22.70;99.90;;;;;;5126241;27;19924;-76
2023/08/15 09:19:02;;;;;;;;;;;22.80;99.90;;;;;;5121321;27;20396;-77
2023/08/15 09:21:28;;;;;;;;;;;22.90;99.90;;;;;;5122240;27;19924;-77
2023/08/15 09:23:55;;;;;;;;;;;23.20;99.90;;;;;;5124897;27;19966;-77
2023/08/15 09:26:21;;;;;;;;;;;23.30;99.90;;;;;;5122894;27;20357;-78
2023/08/15 09:28:47;;;;;;;;;;;23.30;99.90;;;;;;5121278;27;19923;-78
2023/08/15 09:31:13;;;;;;;;;;;23.30;99.90;;;;;;5120791;27;19920;-77
2023/08/15 09:33:38;;;;;;;;;;;23.30;99.90;;;;;;5115876;27;19950;-78
2023/08/15 09:36:05;;;;;;;;;;;23.30;99.90;;;;;;5124437;27;20373;-78
2023/08/15 09:38:31;;;;;;;;;;;23.30;99.90;;;;;;5124125;27;20003;-77
2023/08/15 09:40:57;;;;;;;;;;;23.30;99.90;;;;;;5122923;27;19931;-77
2023/08/15 09:43:22;;;;;;;;;;;23.20;99.90;;;;;;5124473;27;19923;-77
2023/08/15 09:45:48;;;;;;;;;;;23.20;99.90;;;;;;5120802;27;19977;-77
2023/08/15 09:48:15;;;;;;;;;;;23.20;99.90;;;;;;5118470;27;19923;-77
2023/08/15 09:50:42;;;;;;;;;;;23.30;99.90;;;;;;5125529;27;19923;-77
2023/08/15 09:53:08;;;;;;;;;;;23.50;99.90;;;;;;5122969;27;20043;-77
2023/08/15 09:55:35;;;;;;;;;;;23.80;99.90;;;;;;5115721;27;19969;-77
2023/08/15 09:58:00;;;;;;;;;;;23.90;99.90;;;;;;5120979;27;19931;-78
2023/08/15 10:00:26;;;;;;;;;;;24.00;99.90;;;;;;5119279;27;19988;-77
2023/08/15 10:03:05;;;;;;;;;;;24.10;99.90;;;;;;5124162;27;19923;-77
2023/08/15 10:05:31;;;;;;;;;;;24.20;99.90;;;;;;5127185;27;19973;-78
2023/08/15 10:07:57;;;;;;;;;;;24.30;99.90;;;;;;5126839;27;20402;-77
2023/08/15 10:10:24;;;;;;;;;;;24.30;99.90;;;;;;5128447;27;19925;-77
2023/08/15 10:12:50;;;;;;;;;;;24.40;99.90;;;;;;5125253;27;19919;-77
2023/08/15 10:15:16;;;;;;;;;;;24.40;99.90;;;;;;5129707;27;19960;-77
2023/08/15 10:17:42;;;;;;;;;;;24.30;99.90;;;;;;5127895;27;19924;-77
2023/08/15 10:20:10;;;;;;;;;;;24.90;99.90;;;;;;5127059;27;19923;-77
2023/08/15 10:22:39;;;;;;;;;;;24.40;99.90;;;;;;5125606;27;19920;-77
2023/08/15 10:25:23;;;;;;;;;;;24.60;99.90;;;;;;5123759;27;20246;-77
2023/08/15 10:27:50;;;;;;;;;;;24.60;99.90;;;;;;5126066;27;20277;-77
2023/08/15 10:30:36;;;;;;;;;;;24.60;99.90;;;;;;5128400;27;19923;-77
2023/08/15 10:33:10;;;;;;;;;;;24.70;99.90;;;;;;5126022;27;20442;-77
2023/08/15 10:35:36;;;;;;;;;;;24.60;99.90;;;;;;5126412;27;19956;-77
2023/08/15 10:38:12;;;;;;;;;;;24.30;99.90;;;;;;5125981;27;19923;-77
2023/08/15 10:40:39;;;;;;;;;;;24.10;99.90;;;;;;5124364;27;19934;-78
2023/08/15 10:43:06;;;;;;;;;;;24.10;99.90;;;;;;5124178;27;19927;-79
2023/08/15 10:45:35;;;;;;;;;;;23.80;99.90;;;;;;5122236;27;20047;-77
2023/08/15 10:48:01;;;;;;;;;;;24.10;99.90;;;;;;5123338;27;20457;-79
2023/08/15 10:50:27;;;;;;;;;;;24.20;99.90;;;;;;5128117;27;19920;-78
2023/08/15 10:52:59;;;;;;;;;;;24.40;99.90;;;;;;5127256;27;19953;-78
2023/08/15 10:55:29;;;;;;;;;;;24.40;99.90;;;;;;5124940;27;19949;-78
2023/08/15 10:57:58;;;;;;;;;;;24.50;99.90;;;;;;5123398;27;19972;-78
2023/08/15 11:00:25;;;;;;;;;;;24.60;99.90;;;;;;5125239;27;19958;-77
2023/08/15 11:02:51;;;;;;;;;;;24.70;99.90;;;;;;5124505;27;19927;-77
2023/08/15 11:05:18;;;;;;;;;;;24.80;99.90;;;;;;5127701;27;19923;-78
2023/08/15 11:07:43;;;;;;;;;;;24.70;99.90;;;;;;5127191;27;19923;-78
2023/08/15 11:10:11;;;;;;;;;;;24.50;99.90;;;;;;5123795;27;20293;-78
2023/08/15 11:12:36;;;;;;;;;;;24.30;99.90;;;;;;5127228;27;19923;-78
2023/08/15 11:15:02;;;;;;;;;;;24.20;99.90;;;;;;5128259;27;20014;-78
2023/08/15 11:17:28;;;;;;;;;;;23.80;99.90;;;;;;5124578;27;20380;-78
2023/08/15 11:19:53;;;;;;;;;;;24.30;99.90;;;;;;5124416;27;19976;-78
2023/08/15 11:22:20;;;;;;;;;;;24.50;99.90;;;;;;5124850;27;19931;-77
2023/08/15 11:24:49;;;;;;;;;;;24.70;99.90;;;;;;5129115;27;19925;-78
2023/08/15 11:27:15;;;;;;;;;;;25.00;99.90;;;;;;5124304;27;20010;-78
2023/08/15 11:29:40;;;;;;;;;;;25.30;99.90;;;;;;5126759;27;20014;-78
2023/08/15 11:32:06;;;;;;;;;;;25.40;99.90;;;;;;5124223;27;20358;-79
2023/08/15 11:34:31;;;;;;;;;;;25.40;99.90;;;;;;5123574;27;19927;-77
2023/08/15 11:36:57;;;;;;;;;;;25.40;99.90;;;;;;5126064;27;19977;-78
2023/08/15 11:39:23;;;;;;;;;;;25.40;99.90;;;;;;5125631;27;19931;-78
2023/08/15 11:41:49;;;;;;;;;;;25.40;99.90;;;;;;5126130;27;19923;-78
2023/08/15 11:44:19;;;;;;;;;;;25.50;99.90;;;;;;5126677;27;20380;-78
2023/08/15 11:46:44;;;;;;;;;;;25.50;99.90;;;;;;5126519;27;19959;-78
2023/08/15 11:49:17;;;;;;;;;;;25.60;99.90;;;;;;5123794;27;20044;-78
2023/08/15 11:51:42;;;;;;;;;;;25.50;99.90;;;;;;5126787;27;20354;-78
2023/08/15 11:54:08;;;;;;;;;;;25.50;99.90;;;;;;5122000;27;19970;-78
2023/08/15 11:56:49;;;;;;;;;;;25.70;99.90;;;;;;5122546;27;19927;-77
2023/08/15 11:59:18;;;;;;;;;;;25.90;99.90;;;;;;5124393;27;19923;-77
2023/08/15 12:01:44;;;;;;;;;;;26.00;99.90;;;;;;5123115;27;19974;-77
2023/08/15 12:04:13;;;;;;;;;;;25.90;99.90;;;;;;5125563;27;20760;-78
2023/08/15 12:06:39;;;;;;;;;;;25.80;99.90;;;;;;5128406;27;19919;-77
2023/08/15 12:09:08;;;;;;;;;;;25.70;99.90;;;;;;5126677;27;20387;-77
2023/08/15 12:11:34;;;;;;;;;;;25.50;99.90;;;;;;5122854;27;19923;-78
2023/08/15 12:14:00;;;;;;;;;;;25.30;99.90;;;;;;5126571;27;19929;-79
2023/08/15 12:16:26;;;;;;;;;;;25.20;99.90;;;;;;5125798;27;20520;-78
2023/08/15 12:18:51;;;;;;;;;;;25.10;99.90;;;;;;5125297;27;19923;-78
2023/08/15 12:21:17;;;;;;;;;;;25.40;99.90;;;;;;5123009;27;20393;-78
2023/08/15 12:23:43;;;;;;;;;;;25.70;99.90;;;;;;5126506;27;19964;-78
2023/08/15 12:26:08;;;;;;;;;;;26.00;99.90;;;;;;5108556;28;19923;-78
2023/08/15 12:28:34;;;;;;;;;;;26.10;99.90;;;;;;5125840;27;19919;-78
2023/08/15 12:31:00;;;;;;;;;;;26.10;99.90;;;;;;5125414;27;19930;-78
2023/08/15 12:33:25;;;;;;;;;;;25.90;99.90;;;;;;5122507;27;20051;-78
2023/08/15 12:35:51;;;;;;;;;;;25.90;99.90;;;;;;5124361;28;19931;-78
2023/08/15 12:38:17;;;;;;;;;;;26.00;99.90;;;;;;5124721;28;19927;-78
2023/08/15 12:40:43;;;;;;;;;;;25.90;99.90;;;;;;5127362;28;19923;-78
2023/08/15 12:43:09;;;;;;;;;;;26.10;99.90;;;;;;5122664;28;19941;-78
2023/08/15 12:45:35;;;;;;;;;;;25.90;99.90;;;;;;5125882;28;19923;-78
2023/08/15 12:48:01;;;;;;;;;;;25.70;99.90;;;;;;5122373;27;19969;-78
2023/08/15 12:50:26;;;;;;;;;;;25.70;99.90;;;;;;5127047;28;19996;-78
2023/08/15 12:52:52;;;;;;;;;;;25.70;99.90;;;;;;5126075;27;19923;-77
2023/08/15 12:55:17;;;;;;;;;;;25.60;99.90;;;;;;5122304;28;19923;-77
2023/08/15 12:57:43;;;;;;;;;;;25.40;99.90;;;;;;5125646;28;19919;-78
2023/08/15 13:00:09;;;;;;;;;;;25.30;99.90;;;;;;5126118;28;19931;-78
2023/08/15 13:02:35;;;;;;;;;;;25.20;99.90;;;;;;5123981;27;19970;-77
2023/08/15 13:05:00;;;;;;;;;;;25.10;99.90;;;;;;5123546;27;20014;-78
2023/08/15 13:07:26;;;;;;;;;;;25.00;99.90;;;;;;5125971;28;20010;-78
2023/08/15 13:09:51;;;;;;;;;;;24.90;99.90;;;;;;5121311;28;20342;-79
2023/08/15 13:12:17;;;;;;;;;;;24.90;99.90;;;;;;5135933;27;21049;-79
2023/08/15 13:14:44;;;;;;;;;;;24.90;99.90;;;;;;5125179;28;19919;-79
2023/08/15 13:17:10;;;;;;;;;;;24.60;99.90;;;;;;5124223;28;20046;-78
2023/08/15 13:19:36;;;;;;;;;;;24.70;99.90;;;;;;5123425;28;19981;-78
2023/08/15 13:22:02;;;;;;;;;;;24.80;99.90;;;;;;5124531;28;19958;-78
2023/08/15 13:24:27;;;;;;;;;;;25.00;99.90;;;;;;5124441;28;20373;-78
2023/08/15 13:26:53;;;;;;;;;;;25.30;99.90;;;;;;5120274;28;19930;-79
2023/08/15 13:29:19;;;;;;;;;;;26.00;99.90;;;;;;5126834;28;19968;-77
2023/08/15 13:31:44;;;;;;;;;;;26.20;99.90;;;;;;5124270;27;19932;-78
2023/08/15 13:34:10;;;;;;;;;;;26.20;99.90;;;;;;5123517;28;19919;-78
2023/08/15 13:36:35;;;;;;;;;;;26.20;99.90;;;;;;5124944;28;19924;-78
2023/08/15 13:39:01;;;;;;;;;;;26.40;99.90;;;;;;5125712;28;20014;-78
2023/08/15 13:41:27;;;;;;;;;;;26.40;99.90;;;;;;5107918;28;20192;-78
2023/08/15 13:43:52;;;;;;;;;;;26.30;99.90;;;;;;5119319;27;19940;-78
2023/08/15 13:46:18;;;;;;;;;;;26.30;99.90;;;;;;5128400;27;19980;-78
2023/08/15 13:48:44;;;;;;;;;;;26.40;99.90;;;;;;5129918;27;19963;-78
2023/08/15 13:51:15;;;;;;;;;;;26.50;99.90;;;;;;5129199;27;19961;-77
2023/08/15 13:53:41;;;;;;;;;;;26.60;99.90;;;;;;5125108;27;19926;-77
2023/08/15 13:56:07;;;;;;;;;;;26.70;99.90;;;;;;5130413;27;19923;-76
2023/08/15 13:58:32;;;;;;;;;;;26.80;99.90;;;;;;5128259;27;19982;-76
2023/08/15 14:00:58;;;;;;;;;;;26.80;99.90;;;;;;5111548;27;19927;-76
2023/08/15 14:03:29;;;;;;;;;;;26.70;99.90;;;;;;5117905;27;20480;-77
2023/08/15 14:05:55;;;;;;;;;;;26.60;99.90;;;;;;5127986;27;19920;-77
2023/08/15 14:08:21;;;;;;;;;;;26.60;99.90;;;;;;5129810;27;19923;-77
2023/08/15 14:10:46;;;;;;;;;;;26.30;99.90;;;;;;5128625;27;20002;-77
2023/08/15 14:13:12;;;;;;;;;;;26.10;99.90;;;;;;5117947;27;19974;-77